Lykes Provider — VQIV9 — position and weather

sailwx.info

Track history (hours):
 
Tides and Currents Weather Stations Pressure Air Temp Water Temp Dewpoint Dewpoint Depression Visibility Wind Speed Wind Dir Waves Ship Positions

Lykes Provider

Last reported at 2014-Sep-30 16:33 UTC. Time now 2014-Oct-01 04:00 UTC.
Position N 22°20' E 114°05'.

Length 260 m; draft 11.7 m.

Type: Ship (hazmat cat C). MMSI: 235645000.

Date/timePositionNaut miles runAvg speedWind from/ knotsBaromVisibWave heightAir tempDewpointWater temp
2014-Sep-30 16:33N 22°20' E 114°05'1110.9
2014-Sep-30 15:33N 22°23' E 113°54'4 3.6
2014-Sep-30 14:28N 22°27' E 113°53'0 0.0
2014-Sep-30 13:28N 22°27' E 113°53'0 0.0
2014-Sep-30 12:28N 22°27' E 113°53'0 0.0
2014-Sep-30 11:28N 22°27' E 113°53'0 0.0
2014-Sep-30 10:28N 22°27' E 113°53'0 0.0
2014-Sep-30 09:16N 22°27' E 113°53'0 0.0
2014-Sep-30 08:31N 22°27' E 113°53'0 0.0
2014-Sep-30 07:33N 22°27' E 113°53'0 0.0
2014-Sep-30 06:33N 22°27' E 113°53'0 0.0
2014-Sep-30 05:32N 22°27' E 113°53'2 2.3
2014-Sep-30 04:33N 22°25' E 113°53'7 7.4
2014-Sep-30 03:32N 22°21' E 114°00'259 8.9
2014-Sep-28 22:29N 23°50' E 118°24'3911.7
2014-Sep-28 19:09N 24°16' E 118°56'3011.4
2014-Sep-28 16:33N 24°36' E 119°21'1010.4
2014-Sep-28 15:33N 24°40' E 119°31'11 9.9
2014-Sep-28 14:25N 24°48' E 119°40'295 9.8
2014-Sep-27 08:11N 29°03' E 122°28'3011.4
2014-Sep-27 05:34N 29°33' E 122°29'1010.4
2014-Sep-27 04:34N 29°42' E 122°23'10 9.8
2014-Sep-27 03:33N 29°48' E 122°15'1211.5
2014-Sep-27 02:33N 29°55' E 122°04'7 7.1
2014-Sep-27 01:33N 29°56' E 121°56'0 0.1
2014-Sep-27 00:33N 29°56' E 121°56'0 0.0
2014-Sep-26 23:27N 29°56' E 121°56'0 0.0
2014-Sep-26 21:33N 29°56' E 121°56'0 0.0
2014-Sep-26 20:33N 29°56' E 121°56'0 0.0
2014-Sep-26 19:18N 29°56' E 121°56'0 0.0
2014-Sep-26 17:07N 29°56' E 121°56'2 2.8
2014-Sep-26 16:33N 29°58' E 121°57'9 9.5
2014-Sep-26 15:33N 29°56' E 122°07'1212.1
2014-Sep-26 14:33N 29°47' E 122°17'1010.4
2014-Sep-26 13:33N 29°45' E 122°28'6 5.7
2014-Sep-26 12:32N 29°44' E 122°35'1 1.4
2014-Sep-26 11:33N 29°43' E 122°36'1 1.0
2014-Sep-26 10:33N 29°43' E 122°37'1 1.0
2014-Sep-26 09:30N 29°44' E 122°38'8 7.7
2014-Sep-26 08:31N 29°48' E 122°46'1812.3
2014-Sep-26 07:04N 30°03' E 122°58'2313.1
2014-Sep-26 05:17N 30°26' E 123°01'2514.6
2014-Sep-26 03:34N 30°51' E 123°04'5 2.5
2014-Sep-26 01:33N 30°56' E 123°06'75 9.4
2014-Sep-25 17:32N 31°20' E 121°42'6 5.1
2014-Sep-25 16:21N 31°22' E 121°35'0 0.0
2014-Sep-25 15:33N 31°22' E 121°35'0 0.0
2014-Sep-25 14:21N 31°22' E 121°35'0 0.0
2014-Sep-25 13:33N 31°22' E 121°35'0 0.0
2014-Sep-25 12:27N 31°22' E 121°35'0 0.0
2014-Sep-25 11:33N 31°22' E 121°35'0 0.0
2014-Sep-25 10:27N 31°22' E 121°35'0 0.0
2014-Sep-25 09:03N 31°22' E 121°35'0 0.0
2014-Sep-25 08:33N 31°22' E 121°35'0 0.0
2014-Sep-25 07:33N 31°22' E 121°35'0 0.0
2014-Sep-25 05:14N 31°22' E 121°35'0 0.0
2014-Sep-25 04:20N 31°22' E 121°35'2 2.2
2014-Sep-25 03:33N 31°22' E 121°37'1110.6
2014-Sep-25 02:32N 31°17' E 121°49'35 8.8
2014-Sep-24 22:33N 31°05' E 122°27'  
Track history (hours):
 
Tides and Currents Weather Stations Pressure Air Temp Water Temp Dewpoint Dewpoint Depression Visibility Wind Speed Wind Dir Waves Ship Positions

Lykes Provider

Last reported at 2014-Sep-30 16:33 UTC. Time now 2014-Oct-01 04:00 UTC.
Position N 22°20' E 114°05'.

Length 260 m; draft 11.7 m.

Type: Ship (hazmat cat C). MMSI: 235645000.

Date/timePositionNaut miles runAvg speedWind from/ knotsBaromVisibWave heightAir tempDewpointWater temp
2014-Sep-30 16:33N 22°20' E 114°05'1110.9
2014-Sep-30 15:33N 22°23' E 113°54'4 3.6
2014-Sep-30 14:28N 22°27' E 113°53'0 0.0
2014-Sep-30 13:28N 22°27' E 113°53'0 0.0
2014-Sep-30 12:28N 22°27' E 113°53'0 0.0
2014-Sep-30 11:28N 22°27' E 113°53'0 0.0
2014-Sep-30 10:28N 22°27' E 113°53'0 0.0
2014-Sep-30 09:16N 22°27' E 113°53'0 0.0
2014-Sep-30 08:31N 22°27' E 113°53'0 0.0
2014-Sep-30 07:33N 22°27' E 113°53'0 0.0
2014-Sep-30 06:33N 22°27' E 113°53'0 0.0
2014-Sep-30 05:32N 22°27' E 113°53'2 2.3
2014-Sep-30 04:33N 22°25' E 113°53'7 7.4
2014-Sep-30 03:32N 22°21' E 114°00'259 8.9
2014-Sep-28 22:29N 23°50' E 118°24'3911.7
2014-Sep-28 19:09N 24°16' E 118°56'3011.4
2014-Sep-28 16:33N 24°36' E 119°21'1010.4
2014-Sep-28 15:33N 24°40' E 119°31'11 9.9
2014-Sep-28 14:25N 24°48' E 119°40'295 9.8
2014-Sep-27 08:11N 29°03' E 122°28'3011.4
2014-Sep-27 05:34N 29°33' E 122°29'1010.4
2014-Sep-27 04:34N 29°42' E 122°23'10 9.8
2014-Sep-27 03:33N 29°48' E 122°15'1211.5
2014-Sep-27 02:33N 29°55' E 122°04'7 7.1
2014-Sep-27 01:33N 29°56' E 121°56'0 0.1
2014-Sep-27 00:33N 29°56' E 121°56'0 0.0
2014-Sep-26 23:27N 29°56' E 121°56'0 0.0
2014-Sep-26 21:33N 29°56' E 121°56'0 0.0
2014-Sep-26 20:33N 29°56' E 121°56'0 0.0
2014-Sep-26 19:18N 29°56' E 121°56'0 0.0
2014-Sep-26 17:07N 29°56' E 121°56'2 2.8
2014-Sep-26 16:33N 29°58' E 121°57'9 9.5
2014-Sep-26 15:33N 29°56' E 122°07'1212.1
2014-Sep-26 14:33N 29°47' E 122°17'1010.4
2014-Sep-26 13:33N 29°45' E 122°28'6 5.7
2014-Sep-26 12:32N 29°44' E 122°35'1 1.4
2014-Sep-26 11:33N 29°43' E 122°36'1 1.0
2014-Sep-26 10:33N 29°43' E 122°37'1 1.0
2014-Sep-26 09:30N 29°44' E 122°38'8 7.7
2014-Sep-26 08:31N 29°48' E 122°46'1812.3
2014-Sep-26 07:04N 30°03' E 122°58'2313.1
2014-Sep-26 05:17N 30°26' E 123°01'2514.6
2014-Sep-26 03:34N 30°51' E 123°04'5 2.5
2014-Sep-26 01:33N 30°56' E 123°06'75 9.4
2014-Sep-25 17:32N 31°20' E 121°42'6 5.1
2014-Sep-25 16:21N 31°22' E 121°35'0 0.0
2014-Sep-25 15:33N 31°22' E 121°35'0 0.0
2014-Sep-25 14:21N 31°22' E 121°35'0 0.0
2014-Sep-25 13:33N 31°22' E 121°35'0 0.0
2014-Sep-25 12:27N 31°22' E 121°35'0 0.0
2014-Sep-25 11:33N 31°22' E 121°35'0 0.0
2014-Sep-25 10:27N 31°22' E 121°35'0 0.0
2014-Sep-25 09:03N 31°22' E 121°35'0 0.0
2014-Sep-25 08:33N 31°22' E 121°35'0 0.0
2014-Sep-25 07:33N 31°22' E 121°35'0 0.0
2014-Sep-25 05:14N 31°22' E 121°35'0 0.0
2014-Sep-25 04:20N 31°22' E 121°35'2 2.2
2014-Sep-25 03:33N 31°22' E 121°37'1110.6
2014-Sep-25 02:32N 31°17' E 121°49'35 8.8
2014-Sep-24 22:33N 31°05' E 122°27'  

Dump ship's entire track history